sensor_id;sensor_type;location;lat;lon;timestamp;P1;durP1;ratioP1;P2;durP2;ratioP2
10667;SDS011;5382;42.136;24.796;2023-05-15T00:01:04;16.65;;;11.65;;
10667;SDS011;5382;42.136;24.796;2023-05-15T00:03:31;16.13;;;14.43;;
10667;SDS011;5382;42.136;24.796;2023-05-15T00:05:57;13.77;;;12.35;;
10667;SDS011;5382;42.136;24.796;2023-05-15T00:08:24;17.42;;;15.73;;
10667;SDS011;5382;42.136;24.796;2023-05-15T00:10:51;16.88;;;15.18;;
10667;SDS011;5382;42.136;24.796;2023-05-15T00:13:18;20.65;;;12.70;;
10667;SDS011;5382;42.136;24.796;2023-05-15T00:15:46;20.35;;;15.77;;
10667;SDS011;5382;42.136;24.796;2023-05-15T00:18:13;17.83;;;12.15;;
10667;SDS011;5382;42.136;24.796;2023-05-15T00:20:40;19.35;;;14.30;;
10667;SDS011;5382;42.136;24.796;2023-05-15T00:23:08;18.10;;;12.25;;
10667;SDS011;5382;42.136;24.796;2023-05-15T00:25:35;18.92;;;12.55;;
10667;SDS011;5382;42.136;24.796;2023-05-15T00:28:02;22.20;;;14.50;;
10667;SDS011;5382;42.136;24.796;2023-05-15T00:30:29;18.23;;;12.57;;
10667;SDS011;5382;42.136;24.796;2023-05-15T00:32:58;23.55;;;14.48;;
10667;SDS011;5382;42.136;24.796;2023-05-15T00:35:24;20.23;;;15.80;;
10667;SDS011;5382;42.136;24.796;2023-05-15T00:37:51;23.85;;;16.23;;
10667;SDS011;5382;42.136;24.796;2023-05-15T00:40:19;21.30;;;16.20;;
10667;SDS011;5382;42.136;24.796;2023-05-15T00:42:48;22.70;;;15.93;;
10667;SDS011;5382;42.136;24.796;2023-05-15T00:45:16;23.15;;;15.88;;
10667;SDS011;5382;42.136;24.796;2023-05-15T00:47:44;21.02;;;15.90;;
10667;SDS011;5382;42.136;24.796;2023-05-15T00:50:13;21.02;;;15.55;;
10667;SDS011;5382;42.136;24.796;2023-05-15T00:52:40;19.33;;;15.93;;
10667;SDS011;5382;42.136;24.796;2023-05-15T00:55:08;19.75;;;16.60;;
10667;SDS011;5382;42.136;24.796;2023-05-15T00:57:35;20.23;;;16.50;;
10667;SDS011;5382;42.136;24.796;2023-05-15T01:00:03;22.45;;;16.45;;
10667;SDS011;5382;42.136;24.796;2023-05-15T01:02:34;22.67;;;17.20;;
10667;SDS011;5382;42.136;24.796;2023-05-15T01:05:01;22.00;;;16.60;;
10667;SDS011;5382;42.136;24.796;2023-05-15T01:07:29;25.52;;;18.75;;
10667;SDS011;5382;42.136;24.796;2023-05-15T01:10:00;22.70;;;17.77;;
10667;SDS011;5382;42.136;24.796;2023-05-15T01:12:28;26.55;;;17.98;;
10667;SDS011;5382;42.136;24.796;2023-05-15T01:14:57;23.63;;;18.15;;
10667;SDS011;5382;42.136;24.796;2023-05-15T01:17:25;21.80;;;17.55;;
10667;SDS011;5382;42.136;24.796;2023-05-15T01:19:51;20.88;;;16.45;;
10667;SDS011;5382;42.136;24.796;2023-05-15T01:28:09;23.77;;;16.95;;
10667;SDS011;5382;42.136;24.796;2023-05-15T01:30:39;21.85;;;17.05;;
10667;SDS011;5382;42.136;24.796;2023-05-15T01:33:12;25.63;;;17.48;;
10667;SDS011;5382;42.136;24.796;2023-05-15T01:35:47;20.00;;;17.75;;
10667;SDS011;5382;42.136;24.796;2023-05-15T01:38:20;19.17;;;16.92;;
10667;SDS011;5382;42.136;24.796;2023-05-15T01:40:55;20.48;;;17.77;;
10667;SDS011;5382;42.136;24.796;2023-05-15T01:43:27;21.40;;;18.02;;
10667;SDS011;5382;42.136;24.796;2023-05-15T01:45:56;20.77;;;18.63;;
10667;SDS011;5382;42.136;24.796;2023-05-15T01:48:24;21.25;;;18.77;;
10667;SDS011;5382;42.136;24.796;2023-05-15T01:50:53;21.77;;;19.48;;
10667;SDS011;5382;42.136;24.796;2023-05-15T01:53:22;23.20;;;16.90;;
10667;SDS011;5382;42.136;24.796;2023-05-15T01:55:50;22.02;;;19.55;;
10667;SDS011;5382;42.136;24.796;2023-05-15T01:58:18;22.15;;;19.85;;
10667;SDS011;5382;42.136;24.796;2023-05-15T02:00:48;20.48;;;18.42;;
10667;SDS011;5382;42.136;24.796;2023-05-15T02:03:16;24.05;;;20.85;;
10667;SDS011;5382;42.136;24.796;2023-05-15T02:05:44;22.00;;;19.65;;
10667;SDS011;5382;42.136;24.796;2023-05-15T02:08:12;24.42;;;21.13;;
10667;SDS011;5382;42.136;24.796;2023-05-15T02:10:39;22.70;;;20.42;;
10667;SDS011;5382;42.136;24.796;2023-05-15T02:13:07;23.20;;;20.63;;
10667;SDS011;5382;42.136;24.796;2023-05-15T02:15:34;18.33;;;15.20;;
10667;SDS011;5382;42.136;24.796;2023-05-15T02:18:04;19.15;;;13.48;;
10667;SDS011;5382;42.136;24.796;2023-05-15T02:20:31;20.70;;;18.63;;
10667;SDS011;5382;42.136;24.796;2023-05-15T02:22:57;22.33;;;20.10;;
10667;SDS011;5382;42.136;24.796;2023-05-15T02:25:27;23.80;;;20.73;;
10667;SDS011;5382;42.136;24.796;2023-05-15T02:27:59;22.83;;;20.55;;
10667;SDS011;5382;42.136;24.796;2023-05-15T02:30:31;21.27;;;17.02;;
10667;SDS011;5382;42.136;24.796;2023-05-15T02:33:06;24.17;;;21.60;;
10667;SDS011;5382;42.136;24.796;2023-05-15T02:35:41;24.17;;;21.50;;
10667;SDS011;5382;42.136;24.796;2023-05-15T02:38:14;23.75;;;21.35;;
10667;SDS011;5382;42.136;24.796;2023-05-15T02:40:43;23.50;;;20.85;;
10667;SDS011;5382;42.136;24.796;2023-05-15T02:43:11;25.80;;;21.60;;
10667;SDS011;5382;42.136;24.796;2023-05-15T02:45:39;22.45;;;19.95;;
10667;SDS011;5382;42.136;24.796;2023-05-15T02:48:08;22.58;;;20.15;;
10667;SDS011;5382;42.136;24.796;2023-05-15T02:50:35;23.42;;;21.02;;
10667;SDS011;5382;42.136;24.796;2023-05-15T02:53:02;24.20;;;20.55;;
10667;SDS011;5382;42.136;24.796;2023-05-15T02:55:30;23.27;;;19.00;;
10667;SDS011;5382;42.136;24.796;2023-05-15T02:57:57;21.38;;;19.15;;
10667;SDS011;5382;42.136;24.796;2023-05-15T03:00:24;23.50;;;20.67;;
10667;SDS011;5382;42.136;24.796;2023-05-15T03:02:51;23.70;;;19.10;;
10667;SDS011;5382;42.136;24.796;2023-05-15T03:05:19;22.00;;;19.73;;
10667;SDS011;5382;42.136;24.796;2023-05-15T03:07:46;21.98;;;19.77;;
10667;SDS011;5382;42.136;24.796;2023-05-15T03:10:13;23.02;;;20.65;;
10667;SDS011;5382;42.136;24.796;2023-05-15T03:12:40;25.25;;;21.42;;
10667;SDS011;5382;42.136;24.796;2023-05-15T03:15:07;24.17;;;21.77;;
10667;SDS011;5382;42.136;24.796;2023-05-15T03:17:34;23.05;;;20.20;;
10667;SDS011;5382;42.136;24.796;2023-05-15T03:20:01;22.63;;;19.63;;
10667;SDS011;5382;42.136;24.796;2023-05-15T03:22:30;24.08;;;21.63;;
10667;SDS011;5382;42.136;24.796;2023-05-15T03:24:57;23.13;;;20.80;;
10667;SDS011;5382;42.136;24.796;2023-05-15T03:27:25;22.77;;;20.58;;
10667;SDS011;5382;42.136;24.796;2023-05-15T03:29:52;23.35;;;20.95;;
10667;SDS011;5382;42.136;24.796;2023-05-15T03:32:19;23.48;;;21.08;;
10667;SDS011;5382;42.136;24.796;2023-05-15T03:34:46;19.92;;;17.23;;
10667;SDS011;5382;42.136;24.796;2023-05-15T03:37:12;19.80;;;16.23;;
10667;SDS011;5382;42.136;24.796;2023-05-15T03:39:41;27.45;;;24.23;;
10667;SDS011;5382;42.136;24.796;2023-05-15T03:42:07;24.05;;;21.65;;
10667;SDS011;5382;42.136;24.796;2023-05-15T03:44:34;23.95;;;21.45;;
10667;SDS011;5382;42.136;24.796;2023-05-15T03:47:01;26.05;;;23.30;;
10667;SDS011;5382;42.136;24.796;2023-05-15T03:49:28;27.00;;;24.23;;
10667;SDS011;5382;42.136;24.796;2023-05-15T03:51:55;25.15;;;20.92;;
10667;SDS011;5382;42.136;24.796;2023-05-15T03:54:22;24.50;;;21.92;;
10667;SDS011;5382;42.136;24.796;2023-05-15T03:56:50;23.70;;;21.40;;
10667;SDS011;5382;42.136;24.796;2023-05-15T03:59:17;24.40;;;21.92;;
10667;SDS011;5382;42.136;24.796;2023-05-15T04:01:43;23.73;;;21.00;;
10667;SDS011;5382;42.136;24.796;2023-05-15T04:04:10;25.67;;;22.85;;
10667;SDS011;5382;42.136;24.796;2023-05-15T04:06:37;22.98;;;18.30;;
10667;SDS011;5382;42.136;24.796;2023-05-15T04:09:04;26.15;;;22.95;;
10667;SDS011;5382;42.136;24.796;2023-05-15T04:11:30;21.88;;;18.38;;
10667;SDS011;5382;42.136;24.796;2023-05-15T04:14:00;24.30;;;17.13;;
10667;SDS011;5382;42.136;24.796;2023-05-15T04:16:27;25.38;;;22.38;;
10667;SDS011;5382;42.136;24.796;2023-05-15T04:18:53;26.55;;;23.35;;
10667;SDS011;5382;42.136;24.796;2023-05-15T04:21:20;25.58;;;22.63;;
10667;SDS011;5382;42.136;24.796;2023-05-15T04:23:47;24.30;;;21.83;;
10667;SDS011;5382;42.136;24.796;2023-05-15T04:26:14;24.20;;;21.40;;
10667;SDS011;5382;42.136;24.796;2023-05-15T04:28:40;24.08;;;21.23;;
10667;SDS011;5382;42.136;24.796;2023-05-15T04:31:09;22.50;;;20.10;;
10667;SDS011;5382;42.136;24.796;2023-05-15T04:33:36;21.83;;;19.45;;
10667;SDS011;5382;42.136;24.796;2023-05-15T04:36:03;21.48;;;19.38;;
10667;SDS011;5382;42.136;24.796;2023-05-15T04:38:30;25.83;;;19.20;;
10667;SDS011;5382;42.136;24.796;2023-05-15T04:40:57;21.65;;;19.38;;
10667;SDS011;5382;42.136;24.796;2023-05-15T04:43:24;20.90;;;17.80;;
10667;SDS011;5382;42.136;24.796;2023-05-15T04:45:51;19.23;;;17.33;;
10667;SDS011;5382;42.136;24.796;2023-05-15T04:48:19;19.30;;;17.30;;
10667;SDS011;5382;42.136;24.796;2023-05-15T04:50:46;18.55;;;16.73;;
10667;SDS011;5382;42.136;24.796;2023-05-15T04:53:12;20.27;;;17.75;;
10667;SDS011;5382;42.136;24.796;2023-05-15T04:55:40;19.80;;;17.75;;
10667;SDS011;5382;42.136;24.796;2023-05-15T04:58:06;19.42;;;17.42;;
10667;SDS011;5382;42.136;24.796;2023-05-15T05:00:33;19.30;;;17.33;;
10667;SDS011;5382;42.136;24.796;2023-05-15T05:03:00;21.88;;;19.25;;
10667;SDS011;5382;42.136;24.796;2023-05-15T05:05:28;22.20;;;18.65;;
10667;SDS011;5382;42.136;24.796;2023-05-15T05:07:55;22.60;;;20.20;;
10667;SDS011;5382;42.136;24.796;2023-05-15T05:10:21;22.00;;;19.77;;
10667;SDS011;5382;42.136;24.796;2023-05-15T05:12:48;24.00;;;21.40;;
10667;SDS011;5382;42.136;24.796;2023-05-15T05:15:15;23.98;;;21.50;;
10667;SDS011;5382;42.136;24.796;2023-05-15T05:17:42;21.42;;;19.35;;
10667;SDS011;5382;42.136;24.796;2023-05-15T05:20:09;20.70;;;18.60;;
10667;SDS011;5382;42.136;24.796;2023-05-15T05:22:38;21.02;;;18.83;;
10667;SDS011;5382;42.136;24.796;2023-05-15T05:25:06;19.42;;;17.60;;
10667;SDS011;5382;42.136;24.796;2023-05-15T05:27:33;20.33;;;17.00;;
10667;SDS011;5382;42.136;24.796;2023-05-15T05:30:00;20.00;;;17.88;;
10667;SDS011;5382;42.136;24.796;2023-05-15T05:32:27;20.50;;;17.90;;
10667;SDS011;5382;42.136;24.796;2023-05-15T05:34:54;19.45;;;17.02;;
10667;SDS011;5382;42.136;24.796;2023-05-15T05:37:20;19.13;;;15.98;;
10667;SDS011;5382;42.136;24.796;2023-05-15T05:39:49;20.35;;;18.15;;
10667;SDS011;5382;42.136;24.796;2023-05-15T05:42:15;18.90;;;16.95;;
10667;SDS011;5382;42.136;24.796;2023-05-15T05:44:42;18.88;;;16.98;;
10667;SDS011;5382;42.136;24.796;2023-05-15T05:47:09;20.00;;;17.88;;
10667;SDS011;5382;42.136;24.796;2023-05-15T05:49:36;16.45;;;13.88;;
10667;SDS011;5382;42.136;24.796;2023-05-15T05:52:04;21.15;;;17.58;;
10667;SDS011;5382;42.136;24.796;2023-05-15T05:54:32;17.83;;;16.08;;
10667;SDS011;5382;42.136;24.796;2023-05-15T05:57:00;18.60;;;16.00;;
10667;SDS011;5382;42.136;24.796;2023-05-15T05:59:27;19.50;;;17.50;;
10667;SDS011;5382;42.136;24.796;2023-05-15T06:01:54;22.33;;;18.02;;
10667;SDS011;5382;42.136;24.796;2023-05-15T06:04:21;20.65;;;18.48;;
10667;SDS011;5382;42.136;24.796;2023-05-15T06:06:47;24.67;;;19.80;;
10667;SDS011;5382;42.136;24.796;2023-05-15T06:09:15;20.88;;;17.00;;
10667;SDS011;5382;42.136;24.796;2023-05-15T06:11:42;21.42;;;17.80;;
10667;SDS011;5382;42.136;24.796;2023-05-15T06:14:10;19.60;;;17.70;;
10667;SDS011;5382;42.136;24.796;2023-05-15T06:16:37;19.65;;;17.52;;
10667;SDS011;5382;42.136;24.796;2023-05-15T06:19:04;18.30;;;16.40;;
10667;SDS011;5382;42.136;24.796;2023-05-15T06:21:31;17.10;;;15.40;;
10667;SDS011;5382;42.136;24.796;2023-05-15T06:23:58;16.42;;;14.73;;
10667;SDS011;5382;42.136;24.796;2023-05-15T06:26:25;18.48;;;15.05;;
10667;SDS011;5382;42.136;24.796;2023-05-15T06:28:52;19.17;;;16.83;;
10667;SDS011;5382;42.136;24.796;2023-05-15T06:31:21;17.67;;;15.98;;
10667;SDS011;5382;42.136;24.796;2023-05-15T06:33:47;17.02;;;15.15;;
10667;SDS011;5382;42.136;24.796;2023-05-15T06:36:14;18.50;;;15.80;;
10667;SDS011;5382;42.136;24.796;2023-05-15T06:38:41;18.33;;;16.42;;
10667;SDS011;5382;42.136;24.796;2023-05-15T06:41:08;20.33;;;17.90;;
10667;SDS011;5382;42.136;24.796;2023-05-15T06:43:35;18.95;;;16.95;;
10667;SDS011;5382;42.136;24.796;2023-05-15T06:46:02;16.17;;;14.48;;
10667;SDS011;5382;42.136;24.796;2023-05-15T06:48:30;18.85;;;13.90;;
10667;SDS011;5382;42.136;24.796;2023-05-15T06:50:57;17.27;;;14.52;;
10667;SDS011;5382;42.136;24.796;2023-05-15T06:53:24;16.35;;;12.68;;
10667;SDS011;5382;42.136;24.796;2023-05-15T06:55:51;13.15;;;11.77;;
10667;SDS011;5382;42.136;24.796;2023-05-15T06:58:17;13.43;;;12.02;;
10667;SDS011;5382;42.136;24.796;2023-05-15T07:00:44;14.27;;;11.93;;
10667;SDS011;5382;42.136;24.796;2023-05-15T07:03:11;15.07;;;12.57;;
10667;SDS011;5382;42.136;24.796;2023-05-15T07:05:39;13.38;;;12.05;;
10667;SDS011;5382;42.136;24.796;2023-05-15T07:08:06;14.90;;;13.30;;
10667;SDS011;5382;42.136;24.796;2023-05-15T07:10:33;13.13;;;11.73;;
10667;SDS011;5382;42.136;24.796;2023-05-15T07:13:00;15.90;;;12.02;;
10667;SDS011;5382;42.136;24.796;2023-05-15T07:15:28;14.43;;;12.07;;
10667;SDS011;5382;42.136;24.796;2023-05-15T07:17:54;13.50;;;11.90;;
10667;SDS011;5382;42.136;24.796;2023-05-15T07:20:21;14.38;;;11.65;;
10667;SDS011;5382;42.136;24.796;2023-05-15T07:22:50;13.98;;;12.10;;
10667;SDS011;5382;42.136;24.796;2023-05-15T07:25:16;14.15;;;11.30;;
10667;SDS011;5382;42.136;24.796;2023-05-15T07:27:43;13.27;;;11.15;;
10667;SDS011;5382;42.136;24.796;2023-05-15T07:30:10;12.30;;;11.10;;
10667;SDS011;5382;42.136;24.796;2023-05-15T07:32:38;12.60;;;10.55;;
10667;SDS011;5382;42.136;24.796;2023-05-15T07:35:05;12.98;;;11.60;;
10667;SDS011;5382;42.136;24.796;2023-05-15T07:37:32;13.18;;;11.27;;
10667;SDS011;5382;42.136;24.796;2023-05-15T07:40:00;13.45;;;12.05;;
10667;SDS011;5382;42.136;24.796;2023-05-15T07:42:28;17.27;;;12.60;;
10667;SDS011;5382;42.136;24.796;2023-05-15T07:44:55;13.13;;;11.85;;
10667;SDS011;5382;42.136;24.796;2023-05-15T07:47:21;14.23;;;11.90;;
10667;SDS011;5382;42.136;24.796;2023-05-15T07:49:49;12.50;;;11.20;;
10667;SDS011;5382;42.136;24.796;2023-05-15T07:52:16;11.48;;;10.38;;
10667;SDS011;5382;42.136;24.796;2023-05-15T07:54:43;12.57;;;11.27;;
10667;SDS011;5382;42.136;24.796;2023-05-15T07:57:11;14.35;;;10.88;;
10667;SDS011;5382;42.136;24.796;2023-05-15T07:59:38;12.40;;;11.10;;
10667;SDS011;5382;42.136;24.796;2023-05-15T08:02:05;13.65;;;11.13;;
10667;SDS011;5382;42.136;24.796;2023-05-15T08:04:32;16.42;;;12.35;;
10667;SDS011;5382;42.136;24.796;2023-05-15T08:06:58;12.85;;;11.65;;
10667;SDS011;5382;42.136;24.796;2023-05-15T08:09:25;12.68;;;11.38;;
10667;SDS011;5382;42.136;24.796;2023-05-15T08:11:54;13.38;;;12.05;;
10667;SDS011;5382;42.136;24.796;2023-05-15T08:14:23;13.10;;;11.73;;
10667;SDS011;5382;42.136;24.796;2023-05-15T08:16:49;13.73;;;11.75;;
10667;SDS011;5382;42.136;24.796;2023-05-15T08:19:16;14.10;;;11.88;;
10667;SDS011;5382;42.136;24.796;2023-05-15T08:21:43;12.55;;;11.35;;
10667;SDS011;5382;42.136;24.796;2023-05-15T08:24:10;12.63;;;11.10;;
10667;SDS011;5382;42.136;24.796;2023-05-15T08:26:37;15.20;;;11.10;;
10667;SDS011;5382;42.136;24.796;2023-05-15T08:29:04;13.63;;;12.25;;
10667;SDS011;5382;42.136;24.796;2023-05-15T08:31:32;15.25;;;11.82;;
10667;SDS011;5382;42.136;24.796;2023-05-15T08:33:58;13.07;;;11.65;;
10667;SDS011;5382;42.136;24.796;2023-05-15T08:36:25;11.52;;;10.38;;
10667;SDS011;5382;42.136;24.796;2023-05-15T08:38:52;13.10;;;10.65;;
10667;SDS011;5382;42.136;24.796;2023-05-15T08:41:21;15.43;;;11.27;;
10667;SDS011;5382;42.136;24.796;2023-05-15T08:43:55;16.20;;;11.30;;
10667;SDS011;5382;42.136;24.796;2023-05-15T08:46:23;10.80;;;9.75;;
10667;SDS011;5382;42.136;24.796;2023-05-15T08:48:52;14.40;;;10.10;;
10667;SDS011;5382;42.136;24.796;2023-05-15T08:51:21;14.38;;;10.15;;
10667;SDS011;5382;42.136;24.796;2023-05-15T08:53:49;13.13;;;10.48;;
10667;SDS011;5382;42.136;24.796;2023-05-15T08:56:16;13.07;;;11.30;;
10667;SDS011;5382;42.136;24.796;2023-05-15T08:58:43;13.27;;;11.15;;
10667;SDS011;5382;42.136;24.796;2023-05-15T09:01:11;11.27;;;10.18;;
10667;SDS011;5382;42.136;24.796;2023-05-15T09:03:39;12.68;;;11.43;;
10667;SDS011;5382;42.136;24.796;2023-05-15T09:06:07;15.32;;;12.88;;
10667;SDS011;5382;42.136;24.796;2023-05-15T09:08:35;14.23;;;12.55;;
10667;SDS011;5382;42.136;24.796;2023-05-15T09:11:06;13.55;;;12.13;;
10667;SDS011;5382;42.136;24.796;2023-05-15T09:13:34;14.18;;;12.75;;
10667;SDS011;5382;42.136;24.796;2023-05-15T09:16:01;12.93;;;11.27;;
10667;SDS011;5382;42.136;24.796;2023-05-15T09:18:27;15.35;;;12.45;;
10667;SDS011;5382;42.136;24.796;2023-05-15T09:21:04;13.90;;;12.52;;
10667;SDS011;5382;42.136;24.796;2023-05-15T09:23:49;14.52;;;13.02;;
10667;SDS011;5382;42.136;24.796;2023-05-15T09:26:16;13.25;;;12.02;;
10667;SDS011;5382;42.136;24.796;2023-05-15T09:28:43;12.55;;;11.38;;
10667;SDS011;5382;42.136;24.796;2023-05-15T09:31:09;14.75;;;11.27;;
10667;SDS011;5382;42.136;24.796;2023-05-15T09:33:37;17.08;;;12.63;;
10667;SDS011;5382;42.136;24.796;2023-05-15T09:36:06;13.95;;;12.02;;
10667;SDS011;5382;42.136;24.796;2023-05-15T09:38:40;14.35;;;12.70;;
10667;SDS011;5382;42.136;24.796;2023-05-15T09:41:12;13.93;;;12.32;;
10667;SDS011;5382;42.136;24.796;2023-05-15T09:43:39;12.63;;;11.30;;
10667;SDS011;5382;42.136;24.796;2023-05-15T09:46:06;12.77;;;11.40;;
10667;SDS011;5382;42.136;24.796;2023-05-15T09:48:36;11.80;;;10.70;;
10667;SDS011;5382;42.136;24.796;2023-05-15T09:51:04;12.77;;;11.52;;
10667;SDS011;5382;42.136;24.796;2023-05-15T09:53:40;12.05;;;10.68;;
10667;SDS011;5382;42.136;24.796;2023-05-15T09:56:07;14.73;;;12.00;;
10667;SDS011;5382;42.136;24.796;2023-05-15T09:58:34;13.13;;;11.82;;
10667;SDS011;5382;42.136;24.796;2023-05-15T10:01:02;13.40;;;11.15;;
10667;SDS011;5382;42.136;24.796;2023-05-15T10:03:28;14.60;;;12.95;;
10667;SDS011;5382;42.136;24.796;2023-05-15T10:05:58;15.85;;;12.40;;
10667;SDS011;5382;42.136;24.796;2023-05-15T10:08:25;14.43;;;12.93;;
10667;SDS011;5382;42.136;24.796;2023-05-15T10:10:54;15.40;;;12.35;;
10667;SDS011;5382;42.136;24.796;2023-05-15T10:13:25;14.15;;;12.45;;
10667;SDS011;5382;42.136;24.796;2023-05-15T10:15:53;15.05;;;12.45;;
10667;SDS011;5382;42.136;24.796;2023-05-15T10:18:21;14.90;;;12.55;;
10667;SDS011;5382;42.136;24.796;2023-05-15T10:20:53;13.57;;;12.27;;
10667;SDS011;5382;42.136;24.796;2023-05-15T10:23:22;15.10;;;13.38;;
10667;SDS011;5382;42.136;24.796;2023-05-15T10:25:49;16.65;;;13.68;;
10667;SDS011;5382;42.136;24.796;2023-05-15T10:28:22;14.10;;;12.80;;
10667;SDS011;5382;42.136;24.796;2023-05-15T10:30:50;14.60;;;13.25;;
10667;SDS011;5382;42.136;24.796;2023-05-15T10:33:19;14.45;;;13.15;;
10667;SDS011;5382;42.136;24.796;2023-05-15T10:35:47;14.88;;;13.57;;
10667;SDS011;5382;42.136;24.796;2023-05-15T10:38:15;16.27;;;14.60;;
10667;SDS011;5382;42.136;24.796;2023-05-15T10:40:44;15.98;;;14.40;;
10667;SDS011;5382;42.136;24.796;2023-05-15T10:43:12;16.50;;;13.63;;
10667;SDS011;5382;42.136;24.796;2023-05-15T10:45:41;17.83;;;13.60;;
10667;SDS011;5382;42.136;24.796;2023-05-15T10:48:09;14.45;;;13.02;;
10667;SDS011;5382;42.136;24.796;2023-05-15T10:50:37;14.00;;;12.70;;
10667;SDS011;5382;42.136;24.796;2023-05-15T10:53:04;14.75;;;13.48;;
10667;SDS011;5382;42.136;24.796;2023-05-15T10:55:31;14.90;;;13.52;;
10667;SDS011;5382;42.136;24.796;2023-05-15T10:57:58;14.45;;;13.05;;
10667;SDS011;5382;42.136;24.796;2023-05-15T11:00:26;13.35;;;12.02;;
10667;SDS011;5382;42.136;24.796;2023-05-15T11:02:56;13.32;;;12.00;;
10667;SDS011;5382;42.136;24.796;2023-05-15T11:05:26;15.57;;;12.18;;
10667;SDS011;5382;42.136;24.796;2023-05-15T11:10:51;14.38;;;12.43;;
10667;SDS011;5382;42.136;24.796;2023-05-15T11:13:18;14.15;;;12.85;;
10667;SDS011;5382;42.136;24.796;2023-05-15T11:15:46;14.15;;;12.77;;
10667;SDS011;5382;42.136;24.796;2023-05-15T11:18:15;16.55;;;13.27;;
10667;SDS011;5382;42.136;24.796;2023-05-15T11:21:04;12.68;;;11.55;;
10667;SDS011;5382;42.136;24.796;2023-05-15T11:23:39;12.77;;;11.48;;
10667;SDS011;5382;42.136;24.796;2023-05-15T11:26:07;14.45;;;13.05;;
10667;SDS011;5382;42.136;24.796;2023-05-15T11:28:40;15.45;;;12.40;;
10667;SDS011;5382;42.136;24.796;2023-05-15T11:31:08;14.68;;;13.23;;
10667;SDS011;5382;42.136;24.796;2023-05-15T11:33:38;15.00;;;13.45;;
10667;SDS011;5382;42.136;24.796;2023-05-15T11:36:05;18.40;;;14.32;;
10667;SDS011;5382;42.136;24.796;2023-05-15T11:38:36;15.73;;;13.70;;
10667;SDS011;5382;42.136;24.796;2023-05-15T11:41:15;15.63;;;13.57;;
10667;SDS011;5382;42.136;24.796;2023-05-15T11:43:43;16.00;;;14.07;;
10667;SDS011;5382;42.136;24.796;2023-05-15T11:46:10;16.02;;;14.45;;
10667;SDS011;5382;42.136;24.796;2023-05-15T11:48:40;14.55;;;13.15;;
10667;SDS011;5382;42.136;24.796;2023-05-15T11:51:13;14.43;;;12.95;;
10667;SDS011;5382;42.136;24.796;2023-05-15T11:53:43;16.58;;;15.07;;
10667;SDS011;5382;42.136;24.796;2023-05-15T11:56:16;17.48;;;15.75;;
10667;SDS011;5382;42.136;24.796;2023-05-15T11:58:46;16.45;;;14.70;;
10667;SDS011;5382;42.136;24.796;2023-05-15T12:01:13;15.45;;;13.95;;
10667;SDS011;5382;42.136;24.796;2023-05-15T12:03:42;16.38;;;14.88;;
10667;SDS011;5382;42.136;24.796;2023-05-15T12:06:11;16.15;;;14.38;;
10667;SDS011;5382;42.136;24.796;2023-05-15T12:08:38;16.90;;;15.20;;
10667;SDS011;5382;42.136;24.796;2023-05-15T12:11:06;17.17;;;15.60;;
10667;SDS011;5382;42.136;24.796;2023-05-15T12:13:33;17.25;;;15.50;;
10667;SDS011;5382;42.136;24.796;2023-05-15T12:16:00;16.85;;;15.18;;
10667;SDS011;5382;42.136;24.796;2023-05-15T12:18:28;16.33;;;14.63;;
10667;SDS011;5382;42.136;24.796;2023-05-15T12:20:57;17.65;;;15.88;;
10667;SDS011;5382;42.136;24.796;2023-05-15T12:23:24;18.38;;;16.58;;
10667;SDS011;5382;42.136;24.796;2023-05-15T12:25:54;17.45;;;15.82;;
10667;SDS011;5382;42.136;24.796;2023-05-15T12:28:22;18.08;;;16.45;;
10667;SDS011;5382;42.136;24.796;2023-05-15T12:30:50;16.80;;;15.18;;
10667;SDS011;5382;42.136;24.796;2023-05-15T12:33:17;17.85;;;16.25;;
10667;SDS011;5382;42.136;24.796;2023-05-15T12:35:48;21.40;;;16.55;;
10667;SDS011;5382;42.136;24.796;2023-05-15T12:38:18;17.25;;;15.65;;
10667;SDS011;5382;42.136;24.796;2023-05-15T12:40:49;17.33;;;15.82;;
10667;SDS011;5382;42.136;24.796;2023-05-15T12:43:18;18.10;;;16.42;;
10667;SDS011;5382;42.136;24.796;2023-05-15T12:45:45;18.08;;;16.42;;
10667;SDS011;5382;42.136;24.796;2023-05-15T12:48:12;15.93;;;14.38;;
10667;SDS011;5382;42.136;24.796;2023-05-15T12:50:42;16.73;;;15.00;;
10667;SDS011;5382;42.136;24.796;2023-05-15T12:53:11;16.55;;;15.05;;
10667;SDS011;5382;42.136;24.796;2023-05-15T12:55:40;18.70;;;16.10;;
10667;SDS011;5382;42.136;24.796;2023-05-15T12:58:10;17.27;;;15.68;;
10667;SDS011;5382;42.136;24.796;2023-05-15T13:00:37;17.65;;;15.65;;
10667;SDS011;5382;42.136;24.796;2023-05-15T13:03:07;16.27;;;14.80;;
10667;SDS011;5382;42.136;24.796;2023-05-15T13:05:35;22.75;;;14.93;;
10667;SDS011;5382;42.136;24.796;2023-05-15T13:08:03;17.05;;;15.32;;
10667;SDS011;5382;42.136;24.796;2023-05-15T13:10:31;17.23;;;15.52;;
10667;SDS011;5382;42.136;24.796;2023-05-15T13:13:01;17.40;;;15.55;;
10667;SDS011;5382;42.136;24.796;2023-05-15T13:15:28;18.40;;;16.60;;
10667;SDS011;5382;42.136;24.796;2023-05-15T13:18:00;17.05;;;14.95;;
10667;SDS011;5382;42.136;24.796;2023-05-15T13:20:28;20.58;;;16.58;;
10667;SDS011;5382;42.136;24.796;2023-05-15T13:22:58;21.50;;;17.55;;
10667;SDS011;5382;42.136;24.796;2023-05-15T13:25:26;19.02;;;16.77;;
10667;SDS011;5382;42.136;24.796;2023-05-15T13:27:54;19.98;;;17.83;;
10667;SDS011;5382;42.136;24.796;2023-05-15T13:30:24;20.05;;;17.83;;
10667;SDS011;5382;42.136;24.796;2023-05-15T13:32:51;21.05;;;18.85;;
10667;SDS011;5382;42.136;24.796;2023-05-15T13:35:18;25.52;;;20.30;;
10667;SDS011;5382;42.136;24.796;2023-05-15T13:37:45;23.02;;;19.17;;
10667;SDS011;5382;42.136;24.796;2023-05-15T13:40:12;20.92;;;18.67;;
10667;SDS011;5382;42.136;24.796;2023-05-15T13:42:40;20.55;;;18.45;;
10667;SDS011;5382;42.136;24.796;2023-05-15T13:45:09;22.10;;;18.55;;
10667;SDS011;5382;42.136;24.796;2023-05-15T13:47:38;22.17;;;19.52;;
10667;SDS011;5382;42.136;24.796;2023-05-15T13:50:05;22.10;;;18.90;;
10667;SDS011;5382;42.136;24.796;2023-05-15T13:52:33;21.27;;;19.08;;
10667;SDS011;5382;42.136;24.796;2023-05-15T13:55:00;20.60;;;18.55;;
10667;SDS011;5382;42.136;24.796;2023-05-15T13:57:28;20.42;;;18.30;;
10667;SDS011;5382;42.136;24.796;2023-05-15T13:59:56;23.40;;;19.83;;
10667;SDS011;5382;42.136;24.796;2023-05-15T14:02:23;21.80;;;19.50;;
10667;SDS011;5382;42.136;24.796;2023-05-15T14:04:52;23.63;;;19.67;;
10667;SDS011;5382;42.136;24.796;2023-05-15T14:07:20;21.17;;;18.98;;
10667;SDS011;5382;42.136;24.796;2023-05-15T14:09:47;20.33;;;18.15;;
10667;SDS011;5382;42.136;24.796;2023-05-15T14:12:14;20.48;;;18.42;;
10667;SDS011;5382;42.136;24.796;2023-05-15T14:14:41;20.55;;;18.27;;
10667;SDS011;5382;42.136;24.796;2023-05-15T14:17:10;21.35;;;19.25;;
10667;SDS011;5382;42.136;24.796;2023-05-15T14:19:37;22.20;;;20.08;;
10667;SDS011;5382;42.136;24.796;2023-05-15T14:22:05;23.90;;;20.10;;
10667;SDS011;5382;42.136;24.796;2023-05-15T14:24:32;24.23;;;19.50;;
10667;SDS011;5382;42.136;24.796;2023-05-15T14:26:59;21.25;;;19.17;;
10667;SDS011;5382;42.136;24.796;2023-05-15T14:29:25;23.00;;;20.48;;
10667;SDS011;5382;42.136;24.796;2023-05-15T14:31:52;22.67;;;20.17;;
10667;SDS011;5382;42.136;24.796;2023-05-15T14:34:19;23.63;;;20.40;;